Crown Topaz — 3FAS9 — position and weather

sailwx.info

Track history (hours):
 
Tides and Currents Weather Stations Pressure Air Temp Water Temp Dewpoint Dewpoint Depression Visibility Wind Speed Wind Dir Waves Ship Positions

Crown Topaz

Last reported at 2015-Jan-25 03:29 UTC. Time now 2015-Jan-25 03:49 UTC.
Position N 17°47' W 063°08'.

Length 152 m; draft 6.5 m.

Type: Cargo ship. MMSI: 357144000.

Date/timePositionNaut miles runAvg speedWind from/ knotsBaromVisibWave heightAir tempDewpointWater temp
2015-Jan-25 03:29N 17°47' W 063°08'6215.1
2015-Jan-24 23:24N 16°54' W 062°35'1516.4
2015-Jan-24 22:31N 16°43' W 062°25'1516.0
2015-Jan-24 21:33N 16°31' W 062°15'  
2015-Jan-19 08:12N 36°01' W 027°54'2119.1
2015-Jan-19 07:07N 36°13' W 027°32'1418.8
2015-Jan-19 06:22N 36°21' W 027°18'1619.2
2015-Jan-19 05:31N 36°30' W 027°01'1819.1
2015-Jan-19 04:33N 36°40' W 026°42'1918.9
2015-Jan-19 03:33N 36°51' W 026°23'1918.9
2015-Jan-19 02:33N 37°01' W 026°03'1918.8
2015-Jan-19 01:33N 37°12' W 025°44'1918.7
2015-Jan-19 00:33N 37°22' W 025°24'1919.0
2015-Jan-18 23:34N 37°33' W 025°04'1919.4
2015-Jan-18 22:33N 37°45' W 024°45'1919.2
2015-Jan-18 21:34N 37°58' W 024°27'1919.3
2015-Jan-18 20:33N 38°11' W 024°09'  
2015-Jan-15 17:11N 49°39' W 000°40'1217.3
2015-Jan-15 16:30N 49°34' W 000°23'1415.2
2015-Jan-15 15:34N 49°29' W 000°03'1211.6
2015-Jan-15 14:32N 49°26' E 000°15'  
Track history (hours):
 
Tides and Currents Weather Stations Pressure Air Temp Water Temp Dewpoint Dewpoint Depression Visibility Wind Speed Wind Dir Waves Ship Positions

Crown Topaz

Last reported at 2015-Jan-25 03:29 UTC. Time now 2015-Jan-25 03:49 UTC.
Position N 17°47' W 063°08'.

Length 152 m; draft 6.5 m.

Type: Cargo ship. MMSI: 357144000.

Date/timePositionNaut miles runAvg speedWind from/ knotsBaromVisibWave heightAir tempDewpointWater temp
2015-Jan-25 03:29N 17°47' W 063°08'6215.1
2015-Jan-24 23:24N 16°54' W 062°35'1516.4
2015-Jan-24 22:31N 16°43' W 062°25'1516.0
2015-Jan-24 21:33N 16°31' W 062°15'  
2015-Jan-19 08:12N 36°01' W 027°54'2119.1
2015-Jan-19 07:07N 36°13' W 027°32'1418.8
2015-Jan-19 06:22N 36°21' W 027°18'1619.2
2015-Jan-19 05:31N 36°30' W 027°01'1819.1
2015-Jan-19 04:33N 36°40' W 026°42'1918.9
2015-Jan-19 03:33N 36°51' W 026°23'1918.9
2015-Jan-19 02:33N 37°01' W 026°03'1918.8
2015-Jan-19 01:33N 37°12' W 025°44'1918.7
2015-Jan-19 00:33N 37°22' W 025°24'1919.0
2015-Jan-18 23:34N 37°33' W 025°04'1919.4
2015-Jan-18 22:33N 37°45' W 024°45'1919.2
2015-Jan-18 21:34N 37°58' W 024°27'1919.3
2015-Jan-18 20:33N 38°11' W 024°09'  
2015-Jan-15 17:11N 49°39' W 000°40'1217.3
2015-Jan-15 16:30N 49°34' W 000°23'1415.2
2015-Jan-15 15:34N 49°29' W 000°03'1211.6
2015-Jan-15 14:32N 49°26' E 000°15'  

Dump ship's entire track history